Hemlock, New York
Current Conditions -  °F | °C
As of 6:54 PM on Saturday 22 Nov 2014 (Local Time) from KDSV Reporting Station
Overcast Overcast  
Wind Chill: 37°   Ceiling: 2400
Heat Index: 43°   Visibility: 10mi
Dew Point: 39°   Wind: 10mph
Humidity: 86%   Direction: 110°ESE
Pressure: 30.03"   Gusts: NA
Location:  42.79°N, 77.61°W
Report Text: KDSV 222354Z AUTO 11009KT 10SM OVC024 06/04 A3003 RMK AO2 RAB44E53 SLP184 P0000 60000 T00610039 10061 20056 58003
Loading
Personal Weather Stations






























Interactive Weather Map New forecast layout! Learn more

10-Day Weather Forecast

Advertisements
Track Severe Weather on mobile